AirNav   Air Wisconsin Up To $57,000 Bonus
 
 970 users online  

6Y5 Two Hearted Airstrip
Newberry, Michigan, USA

GOING TO NEWBERRY?


FAA INFORMATION EFFECTIVE 25 FEBRUARY 2021

Location

FAA Identifier: 6Y5
Lat/Long: 46-41-36.0450N 085-25-19.5450W
46-41.600750N 085-25.325750W
46.6933458,-85.4220958
(estimated)
Elevation: 680 ft. / 207 m (estimated)
From city: 20 miles N of NEWBERRY, MI
Time zone: UTC -5 (UTC -4 during Daylight Saving Time)
Zip code: 49768

Airport Operations

Airport use: Open to the public
Activation date: 03/2018
Control tower: no
ARTCC: MINNEAPOLIS CENTER
FSS: GREEN BAY FLIGHT SERVICE STATION
NOTAMs facility: GRB (NOTAM-D service available)
Attendance: 
Segmented circle: no

Airport Communications

CTAF: 122.9

Airport Services

Runway Information

Runway 7/25

Dimensions: 2400 x 75 ft. / 732 x 23 m
Surface: turf, in poor condition
RWY ROUGH & UNEVEN, SOME SOFT AREAS.
RUNWAY 7  RUNWAY 25
Latitude: 46-41.498500N46-41.703000N
Longitude: 085-25.571167W085-25.080333W
Elevation: 678.0 ft.672.0 ft.
Traffic pattern: leftleft
Obstructions: 38 ft. trees, 560 ft. from runway, 14:1 slope to clear25 ft. trees, 64 ft. from runway, 65 ft. right of centerline, 2:1 slope to clear

Airport Ownership and Management from official FAA records

Ownership: Publicly-owned
Owner: STATE OF MICHIGAN DNR
PO BOX 30452
LANSING, MI 48909-7952
Phone 517-284-6367
Manager: JAY HOLLNAGEL
5523 COUNTY ROAD 399
NEWBERRY, MI 49868-7882
Phone 906-291-0570

Additional Remarks

ARPT CLSD NOV-MAY 15 AND WHEN SNOW COVERED EXCP FOR SKI EQUIP ACFT. NO SNOW REMOVAL.
FQT HIGH WINDS OFF LAKE SUPERIOR.
FOR CD CTC MINNEAPOLIS ARTCC AT 651-463-5588.

Instrument Procedures

There are no published instrument procedures at 6Y5.

Some nearby airports with instrument procedures:

KERY - Luce County Airport (23 nm S)
KANJ - Sault Ste Marie Municipal Airport/Sanderson Field (45 nm E)
KCIU - Chippewa County International Airport (47 nm SE)
KISQ - Schoolcraft County Airport (53 nm SW)
83D - Mackinac County Airport (56 nm SE)
 
Loc | Ops | Rwys | IFR | FBO | Links
Com | Nav | Svcs | Stats | Notes
Aerial photo
No photo
 
Airport distance calculator
Flying to Two Hearted Airstrip? Find the distance to fly.

From to 6Y5

Sunrise and sunset
Times for 26-Feb-2021
 Local
(UTC-5)
 Zulu
(UTC)
Morning civil twilight06:5711:57
Sunrise07:2812:28
Sunset18:2223:22
Evening civil twilight18:5223:52

Current date and time
Zulu (UTC)  26-Feb-2021 23:26:06
Local (UTC-5)  26-Feb-2021 18:26:06
 
METAR
KERY 
24nm S 
262315Z AUTO 20024G28KT 10SM SCT110 02/M06 A2995 RMK AO2 T00151057
CYAM 
40nm E 
262300Z 21010G18KT 10SM FEW022 SCT160 BKN250 02/M03 A2998 RMK CU1AC3CI4 CU TR SLP165
CWCI 
41nm NW 
262200Z AUTO 19023KT 03/M01 RMK AO1 PK WND 19026/2147 SLP108 T00291014 56036
KANJ 
46nm E 
262255Z AUTO 20007G14KT 10SM CLR 03/M03 A2998 RMK AO2 SLP162 T00331033
TAF
CYAM 
40nm E 
261938Z 2620/2708 22012G22KT P6SM SCT020 BKN200 BECMG 2622/2624 20010KT FM270200 17010KT P6SM BKN100 RMK NXT FCST BY 270200Z
NOTAMs
Click for the latest NOTAMs
NOTAMs are issued by the DoD/FAA and will open in a separate window not controlled by AirNav.

 

 
 

Would you like to see your business listed on this page?

 If your business provides an interesting product or service to pilots, flight crews, aircraft, or users of the Two Hearted Airstrip, you should consider listing it here.  To start the listing process, click on the button below
 
Add a business
 

Other Pages about Two Hearted Airstrip

Page from the Michigan Airport Directory (PDF)
 
Update a link
 
Copyright © AirNav, LLC. All rights reserved. Privacy Policy  Contact